Time;durP1;ratioP1;P1;durP2;ratioP2;P2;SDS_P1;SDS_P2;PMS_P1;PMS_P2;Temp;Humidity;BMP_temperature;BMP_pressure;BME280_temperature;BME280_humidity;BME280_pressure;Samples;Min_cycle;Max_cycle;Signal;HPM_P1;HPM_P2
2022/03/12 00:00:13;;;;;;;14.38;8.85;;;6.10;71.60;;;;;;4997606;28;20085;-81
2022/03/12 00:02:39;;;;;;;11.65;7.53;;;6.10;71.40;;;;;;5015253;28;20130;-81
2022/03/12 00:05:08;;;;;;;13.30;8.15;;;6.10;71.50;;;;;;5015184;28;20533;-81
2022/03/12 00:07:40;;;;;;;14.43;7.70;;;6.10;71.40;;;;;;4997832;28;20049;-81
2022/03/12 00:10:07;;;;;;;15.02;9.05;;;6.10;71.50;;;;;;4997711;28;20060;-81
2022/03/12 00:12:37;;;;;;;13.23;7.75;;;6.10;71.50;;;;;;4997342;28;20042;-82
2022/03/12 00:15:10;;;;;;;13.55;8.45;;;6.10;71.60;;;;;;4997597;28;20053;-81
2022/03/12 00:17:43;;;;;;;13.57;7.57;;;6.20;71.40;;;;;;4997347;28;20053;-81
2022/03/12 00:20:12;;;;;;;12.45;7.68;;;6.20;72.30;;;;;;4997244;28;20504;-81
2022/03/12 00:22:45;;;;;;;14.02;7.65;;;6.10;71.90;;;;;;4997347;28;20081;-81
2022/03/12 00:25:13;;;;;;;15.13;8.63;;;6.10;72.00;;;;;;4997141;28;20049;-81
2022/03/12 00:27:39;;;;;;;15.68;8.07;;;6.20;71.40;;;;;;4997103;28;20057;-81
2022/03/12 00:30:06;;;;;;;12.80;7.93;;;6.20;71.80;;;;;;4997425;28;20482;-81
2022/03/12 00:32:36;;;;;;;12.93;7.50;;;6.20;71.70;;;;;;4997279;28;20044;-81
2022/03/12 00:35:04;;;;;;;15.07;8.13;;;6.20;71.80;;;;;;4997127;28;20050;-81
2022/03/12 00:37:29;;;;;;;12.85;7.35;;;6.20;71.40;;;;;;4997166;28;20133;-81
2022/03/12 00:39:55;;;;;;;14.63;8.50;;;6.20;70.80;;;;;;4996801;28;20137;-81
2022/03/12 00:42:21;;;;;;;16.13;8.20;;;6.20;71.90;;;;;;4997262;28;20049;-82
2022/03/12 00:44:47;;;;;;;13.25;7.45;;;6.20;72.20;;;;;;4996753;28;20100;-81
2022/03/12 00:47:13;;;;;;;12.77;7.68;;;6.20;71.70;;;;;;4996777;28;20034;-81
2022/03/12 00:49:38;;;;;;;13.98;7.13;;;6.20;71.30;;;;;;4995891;28;20065;-81
2022/03/12 00:52:04;;;;;;;13.02;7.30;;;6.20;71.60;;;;;;4996723;28;20053;-81
2022/03/12 00:54:30;;;;;;;15.13;8.27;;;6.20;71.60;;;;;;4996644;28;20044;-81
2022/03/12 00:56:55;;;;;;;14.43;8.93;;;6.20;72.10;;;;;;4996915;28;20056;-81
2022/03/12 00:59:21;;;;;;;13.02;7.75;;;6.20;72.10;;;;;;5014138;28;20053;-81
2022/03/12 01:01:47;;;;;;;13.73;7.57;;;6.10;72.30;;;;;;4996936;28;20065;-81
2022/03/12 01:04:12;;;;;;;12.30;7.40;;;6.20;72.20;;;;;;4996527;28;20104;-80
2022/03/12 01:06:38;;;;;;;12.55;7.68;;;6.20;72.40;;;;;;4996462;28;20057;-81
2022/03/12 01:09:04;;;;;;;13.77;6.85;;;6.20;72.20;;;;;;4996725;28;20060;-81
2022/03/12 01:11:30;;;;;;;12.32;7.60;;;6.20;72.70;;;;;;4996424;28;20149;-80
2022/03/12 01:13:56;;;;;;;14.10;7.93;;;6.20;72.60;;;;;;4996612;28;20129;-80
2022/03/12 01:16:22;;;;;;;13.57;7.70;;;6.20;72.60;;;;;;4996382;28;20069;-80
2022/03/12 01:18:48;;;;;;;15.75;8.20;;;6.20;72.30;;;;;;4996193;28;20042;-80
2022/03/12 01:21:17;;;;;;;11.43;7.32;;;6.20;72.60;;;;;;4996224;28;20053;-81
2022/03/12 01:23:44;;;;;;;13.18;8.23;;;6.20;72.10;;;;;;4996507;28;20042;-81
2022/03/12 01:26:11;;;;;;;16.15;7.82;;;6.10;72.70;;;;;;4996348;28;20057;-81
2022/03/12 01:28:37;;;;;;;12.05;7.38;;;6.20;73.20;;;;;;5013522;28;20540;-81
2022/03/12 01:31:03;;;;;;;14.98;8.20;;;6.20;73.10;;;;;;5013554;28;20045;-81
2022/03/12 01:33:29;;;;;;;12.20;7.68;;;6.10;73.30;;;;;;5013615;28;20556;-81
2022/03/12 01:35:55;;;;;;;11.63;6.68;;;6.20;72.60;;;;;;5013677;28;20559;-81
2022/03/12 01:38:35;;;;;;;14.68;7.60;;;6.10;72.70;;;;;;4996310;28;20041;-81
2022/03/12 01:41:04;;;;;;;12.68;7.57;;;6.20;72.60;;;;;;4996129;28;20041;-81
2022/03/12 01:43:32;;;;;;;12.30;7.57;;;6.20;72.70;;;;;;4996361;28;20500;-77
2022/03/12 01:46:01;;;;;;;12.40;7.20;;;6.20;73.00;;;;;;4996003;28;20054;-77
2022/03/12 01:48:30;;;;;;;15.63;7.90;;;6.20;72.40;;;;;;4996075;28;20061;-82
2022/03/12 01:50:56;;;;;;;13.60;7.63;;;6.20;72.10;;;;;;4996247;28;20481;-83
2022/03/12 01:53:26;;;;;;;13.13;7.55;;;6.10;72.20;;;;;;4996107;28;20044;-83
2022/03/12 01:55:54;;;;;;;13.13;8.57;;;6.10;72.60;;;;;;4995774;28;20050;-82
2022/03/12 01:58:20;;;;;;;12.15;8.05;;;6.00;73.10;;;;;;4995968;28;20117;-81
2022/03/12 02:00:48;;;;;;;12.43;6.93;;;6.10;73.40;;;;;;5016341;28;20046;-81
2022/03/12 02:03:22;;;;;;;13.32;7.57;;;6.10;73.00;;;;;;4999869;28;20100;-81
2022/03/12 02:05:48;;;;;;;12.65;7.45;;;6.10;73.40;;;;;;5000060;28;20058;-81
2022/03/12 02:08:14;;;;;;;13.60;7.70;;;6.10;72.70;;;;;;5017294;28;20432;-80
2022/03/12 02:10:42;;;;;;;13.02;8.10;;;6.10;72.50;;;;;;4999677;28;20082;-81
2022/03/12 02:13:08;;;;;;;12.68;7.18;;;6.10;73.50;;;;;;5017134;28;20050;-81
2022/03/12 02:15:35;;;;;;;12.15;7.43;;;6.10;73.20;;;;;;4999480;28;20397;-80
2022/03/12 02:18:01;;;;;;;15.38;8.57;;;6.10;73.50;;;;;;4999723;28;20050;-80
2022/03/12 02:20:26;;;;;;;14.23;7.05;;;6.10;72.70;;;;;;4999520;28;20136;-80
2022/03/12 02:22:55;;;;;;;13.77;7.57;;;6.00;73.90;;;;;;4999400;28;20080;-80
2022/03/12 02:25:31;;;;;;;17.88;8.00;;;6.00;73.60;;;;;;4999431;28;20085;-80
2022/03/12 02:27:59;;;;;;;14.90;7.93;;;6.00;74.30;;;;;;4999106;28;20046;-80
2022/03/12 02:30:33;;;;;;;13.50;7.65;;;6.00;74.30;;;;;;4999226;28;20049;-80
2022/03/12 02:33:01;;;;;;;12.73;7.80;;;6.00;74.50;;;;;;4999306;28;20592;-80
2022/03/12 02:35:33;;;;;;;16.50;7.45;;;5.90;74.80;;;;;;4999468;28;20100;-81
2022/03/12 02:37:59;;;;;;;14.23;7.75;;;5.90;75.20;;;;;;4999275;28;20050;-81
2022/03/12 02:40:24;;;;;;;14.75;7.32;;;5.90;75.80;;;;;;4999150;28;20058;-80
2022/03/12 02:42:54;;;;;;;17.08;7.53;;;5.90;75.70;;;;;;5016686;28;20049;-82
2022/03/12 02:45:23;;;;;;;15.00;7.93;;;5.90;75.50;;;;;;4999111;28;20084;-81
2022/03/12 02:47:49;;;;;;;14.43;7.70;;;5.90;75.70;;;;;;4999299;28;20216;-81
2022/03/12 02:50:15;;;;;;;12.05;7.13;;;5.90;75.80;;;;;;4999041;28;20531;-81
2022/03/12 02:52:44;;;;;;;12.88;7.57;;;5.90;75.40;;;;;;4998831;28;20050;-81
2022/03/12 02:55:13;;;;;;;12.73;8.52;;;5.90;76.00;;;;;;4998794;28;20053;-81
2022/03/12 02:57:45;;;;;;;12.63;7.20;;;5.90;76.60;;;;;;5016395;28;20049;-81
2022/03/12 03:00:12;;;;;;;16.52;8.75;;;5.90;76.40;;;;;;4998759;28;20053;-80
2022/03/12 03:02:41;;;;;;;13.90;8.07;;;5.80;76.80;;;;;;4998842;28;20042;-80
2022/03/12 03:08:04;;;;;;;16.40;7.95;;;5.80;76.70;;;;;;4998909;28;20108;-81
2022/03/12 03:10:41;;;;;;;12.85;7.97;;;5.80;77.30;;;;;;4998591;28;20386;-80
2022/03/12 03:13:20;;;;;;;13.75;8.05;;;5.80;77.60;;;;;;4998316;28;20433;-80
2022/03/12 03:16:26;;;;;;;13.85;8.90;;;5.80;77.80;;;;;;4998440;28;20129;-80
2022/03/12 03:18:53;;;;;;;13.13;7.45;;;5.80;78.20;;;;;;4998779;28;20061;-80
2022/03/12 03:21:24;;;;;;;15.95;7.85;;;5.80;78.30;;;;;;4998435;28;20050;-81
2022/03/12 03:23:51;;;;;;;13.68;8.02;;;5.70;78.10;;;;;;4998458;28;20081;-81
2022/03/12 03:26:40;;;;;;;14.50;9.15;;;5.70;78.70;;;;;;4998506;28;20037;-80
2022/03/12 03:29:07;;;;;;;17.65;9.27;;;5.70;79.10;;;;;;4998190;28;20131;-80
2022/03/12 03:31:33;;;;;;;22.25;9.35;;;5.70;79.40;;;;;;4998455;28;20050;-81
2022/03/12 03:33:58;;;;;;;19.20;9.65;;;5.70;80.20;;;;;;4998157;28;20061;-81
2022/03/12 03:36:24;;;;;;;25.33;11.63;;;5.70;79.70;;;;;;4998335;28;20049;-81
2022/03/12 03:38:50;;;;;;;15.65;8.70;;;5.70;79.90;;;;;;4998026;28;20064;-81
2022/03/12 03:41:17;;;;;;;17.33;9.07;;;5.70;80.70;;;;;;4998274;28;20053;-81
2022/03/12 03:43:47;;;;;;;21.50;12.02;;;5.70;80.00;;;;;;4998225;28;20034;-81
2022/03/12 03:46:18;;;;;;;16.98;9.73;;;5.70;80.30;;;;;;4998027;28;20050;-81
2022/03/12 03:48:50;;;;;;;23.17;12.10;;;5.70;80.60;;;;;;4997726;28;20172;-81
2022/03/12 03:51:16;;;;;;;16.08;9.43;;;5.70;80.70;;;;;;5015781;28;20085;-81
2022/03/12 03:53:42;;;;;;;14.57;8.48;;;5.70;80.90;;;;;;5015392;28;20084;-80
2022/03/12 03:56:08;;;;;;;17.20;8.50;;;5.70;80.90;;;;;;4997755;28;20045;-80
2022/03/12 03:58:34;;;;;;;15.25;8.52;;;5.70;81.00;;;;;;4997642;28;20050;-80
2022/03/12 04:01:12;;;;;;;15.00;8.60;;;5.70;81.10;;;;;;4997939;28;20156;-80
2022/03/12 04:03:41;;;;;;;23.75;10.65;;;5.70;81.70;;;;;;4997877;28;20057;-80
2022/03/12 04:06:07;;;;;;;19.23;9.68;;;5.70;82.40;;;;;;4997722;28;20463;-83
2022/03/12 04:08:34;;;;;;;14.18;8.45;;;5.70;81.80;;;;;;4997821;28;20497;-77
2022/03/12 04:11:05;;;;;;;14.20;9.07;;;5.70;82.60;;;;;;4997491;28;20140;-77
2022/03/12 04:13:32;;;;;;;15.25;8.52;;;5.70;82.70;;;;;;4997773;28;20054;-81
2022/03/12 04:15:59;;;;;;;16.10;8.27;;;5.60;82.90;;;;;;4997246;28;20045;-83
2022/03/12 04:18:25;;;;;;;15.65;8.93;;;5.70;83.50;;;;;;4997388;28;20085;-84
2022/03/12 04:20:52;;;;;;;13.95;8.30;;;5.60;83.70;;;;;;4997167;28;20049;-83
2022/03/12 04:23:21;;;;;;;14.10;8.18;;;5.60;84.20;;;;;;4997231;28;20045;-81
2022/03/12 04:25:52;;;;;;;16.33;9.05;;;5.60;83.90;;;;;;4997464;28;20072;-81
2022/03/12 04:28:23;;;;;;;18.25;9.95;;;5.70;83.80;;;;;;4996877;28;20069;-81
2022/03/12 04:30:49;;;;;;;14.27;8.60;;;5.60;84.10;;;;;;4996933;28;20056;-81
2022/03/12 04:33:15;;;;;;;23.77;9.93;;;5.60;84.60;;;;;;4997021;28;20056;-81
2022/03/12 04:35:43;;;;;;;16.70;9.23;;;5.60;85.00;;;;;;4997001;28;20080;-81
2022/03/12 04:38:09;;;;;;;15.73;8.65;;;5.60;85.20;;;;;;4997250;28;20081;-82
2022/03/12 04:40:38;;;;;;;14.32;8.35;;;5.60;85.20;;;;;;4997069;28;20120;-81
2022/03/12 04:43:05;;;;;;;13.45;8.68;;;5.60;86.10;;;;;;4996639;28;20048;-81
2022/03/12 04:45:31;;;;;;;14.25;8.98;;;5.50;87.20;;;;;;4996969;28;20386;-81
2022/03/12 04:47:56;;;;;;;17.83;8.50;;;5.50;87.90;;;;;;5014492;28;20042;-81
2022/03/12 04:50:23;;;;;;;17.08;9.30;;;5.50;88.40;;;;;;4996899;28;20068;-81
2022/03/12 04:52:52;;;;;;;18.15;8.73;;;5.50;89.40;;;;;;4996791;28;20052;-81
2022/03/12 04:55:19;;;;;;;17.58;9.82;;;5.40;90.10;;;;;;4996957;28;20104;-81
2022/03/12 04:57:46;;;;;;;16.23;9.20;;;5.40;90.60;;;;;;4996489;28;20042;-81
2022/03/12 05:00:22;;;;;;;14.52;8.55;;;5.50;91.40;;;;;;4996489;28;20049;-81
2022/03/12 05:02:52;;;;;;;17.08;9.85;;;5.40;90.60;;;;;;4996629;28;20042;-81
2022/03/12 05:05:18;;;;;;;14.82;8.40;;;5.40;91.70;;;;;;4996372;28;20089;-81
2022/03/12 05:07:45;;;;;;;14.30;8.77;;;5.40;92.50;;;;;;4996872;28;20074;-80
2022/03/12 05:10:17;;;;;;;15.55;8.15;;;5.40;92.80;;;;;;5014180;28;20084;-80
2022/03/12 05:12:44;;;;;;;15.52;9.13;;;5.40;93.10;;;;;;4996348;28;20052;-80
2022/03/12 05:15:14;;;;;;;14.82;8.90;;;5.40;93.00;;;;;;4996644;28;20054;-77
2022/03/12 05:17:47;;;;;;;12.98;7.97;;;5.40;93.40;;;;;;4996705;28;20129;-77
2022/03/12 05:20:19;;;;;;;15.40;8.30;;;5.40;93.60;;;;;;4996045;28;20116;-77
2022/03/12 05:22:46;;;;;;;15.02;8.98;;;5.40;93.30;;;;;;4996355;28;20057;-77
2022/03/12 05:25:12;;;;;;;14.30;8.00;;;5.30;94.20;;;;;;4996276;28;20049;-77
2022/03/12 05:27:37;;;;;;;15.27;8.40;;;5.30;94.30;;;;;;4996249;28;20050;-77
2022/03/12 05:30:04;;;;;;;14.88;8.43;;;5.30;94.30;;;;;;4996640;28;20054;-77
2022/03/12 05:32:31;;;;;;;13.93;8.43;;;5.30;94.60;;;;;;4996572;28;20053;-77
2022/03/12 05:34:56;;;;;;;14.35;8.57;;;5.30;95.20;;;;;;4999199;28;20042;-77
2022/03/12 05:37:22;;;;;;;14.35;8.77;;;5.30;94.80;;;;;;5002891;28;20034;-77
2022/03/12 05:39:51;;;;;;;13.18;8.15;;;5.30;95.90;;;;;;5002576;28;20441;-77
2022/03/12 05:42:22;;;;;;;15.05;8.80;;;5.30;95.90;;;;;;5002629;28;20050;-77
2022/03/12 05:44:49;;;;;;;14.55;8.20;;;5.30;96.00;;;;;;5020423;28;20050;-77
2022/03/12 05:47:17;;;;;;;18.08;8.18;;;5.30;96.60;;;;;;5002646;28;20161;-77
2022/03/12 05:49:43;;;;;;;17.98;9.85;;;5.30;97.40;;;;;;5002458;28;20089;-77
2022/03/12 05:52:09;;;;;;;17.27;8.45;;;5.30;98.50;;;;;;5002550;28;20522;-77
2022/03/12 05:54:36;;;;;;;14.48;9.02;;;5.30;99.50;;;;;;5002486;28;20049;-77
2022/03/12 05:57:02;;;;;;;16.27;8.95;;;5.30;99.20;;;;;;5002721;28;20053;-77
2022/03/12 05:59:27;;;;;;;15.52;8.93;;;5.20;99.90;;;;;;5002386;28;20437;-77
2022/03/12 06:01:53;;;;;;;14.02;8.75;;;5.20;99.90;;;;;;5002735;28;20045;-77
2022/03/12 06:04:24;;;;;;;15.63;9.13;;;5.20;99.90;;;;;;5002377;28;20061;-77
2022/03/12 06:06:49;;;;;;;18.02;9.02;;;5.10;99.90;;;;;;5002410;28;20054;-77
2022/03/12 06:09:15;;;;;;;18.00;9.45;;;5.10;99.90;;;;;;5002678;28;20050;-77
2022/03/12 06:11:42;;;;;;;15.75;9.65;;;5.10;99.90;;;;;;5002310;28;20116;-77
2022/03/12 06:14:10;;;;;;;17.95;8.77;;;5.10;99.90;;;;;;5002138;28;20045;-77
2022/03/12 06:16:36;;;;;;;18.92;9.98;;;5.10;99.90;;;;;;5001895;28;20125;-77
2022/03/12 06:19:02;;;;;;;14.55;7.78;;;5.10;99.90;;;;;;5000969;28;20129;-77
2022/03/12 06:21:27;;;;;;;15.48;8.80;;;5.10;99.90;;;;;;5019744;28;20037;-77
2022/03/12 06:23:54;;;;;;;15.15;8.82;;;5.10;99.90;;;;;;5002227;28;20038;-77
2022/03/12 06:26:22;;;;;;;15.88;8.95;;;5.10;99.90;;;;;;5002436;28;20107;-77
2022/03/12 06:28:48;;;;;;;13.82;9.00;;;5.10;99.90;;;;;;5001838;28;20050;-77
2022/03/12 06:31:14;;;;;;;12.65;7.82;;;5.10;99.90;;;;;;5002025;28;20057;-77
2022/03/12 06:33:41;;;;;;;23.30;8.82;;;5.10;99.90;;;;;;5002166;28;20045;-77
2022/03/12 06:36:08;;;;;;;21.27;8.98;;;5.10;99.90;;;;;;5002214;28;20042;-77
2022/03/12 06:38:37;;;;;;;13.77;8.70;;;5.10;99.90;;;;;;5002287;28;20187;-77
2022/03/12 06:41:03;;;;;;;20.02;8.90;;;5.20;99.90;;;;;;5002122;28;20487;-77
2022/03/12 06:43:31;;;;;;;14.75;7.88;;;5.20;99.90;;;;;;5001912;28;20050;-77
2022/03/12 06:45:58;;;;;;;14.30;7.93;;;5.20;99.90;;;;;;5000208;28;20053;-77
2022/03/12 06:48:25;;;;;;;14.30;8.45;;;5.20;99.90;;;;;;4999133;28;20608;-78
2022/03/12 06:50:52;;;;;;;15.23;7.82;;;5.20;99.90;;;;;;5016268;28;20490;-77
2022/03/12 06:53:18;;;;;;;14.45;8.70;;;5.20;99.90;;;;;;5016588;28;20041;-77
2022/03/12 06:55:44;;;;;;;15.18;8.73;;;5.20;99.90;;;;;;4998970;28;20053;-77
2022/03/12 06:58:10;;;;;;;18.30;9.35;;;5.30;99.90;;;;;;5016339;28;20038;-77
2022/03/12 07:00:36;;;;;;;15.10;9.35;;;5.30;99.90;;;;;;4998861;28;20081;-77
2022/03/12 07:03:02;;;;;;;13.52;8.40;;;5.30;99.90;;;;;;4998499;28;20131;-77
2022/03/12 07:05:28;;;;;;;14.18;8.55;;;5.30;99.80;;;;;;4998468;28;20502;-77
2022/03/12 07:07:54;;;;;;;14.07;8.23;;;5.30;99.80;;;;;;4998492;28;20056;-77
2022/03/12 07:10:21;;;;;;;18.45;8.15;;;5.40;99.40;;;;;;4998421;28;20048;-76
2022/03/12 07:12:48;;;;;;;14.77;7.50;;;5.40;99.40;;;;;;4998432;28;20116;-78
2022/03/12 07:15:16;;;;;;;18.25;9.70;;;5.40;99.20;;;;;;4998576;28;20049;-78
2022/03/12 07:17:42;;;;;;;15.07;7.68;;;5.50;98.60;;;;;;4998357;28;20053;-77
2022/03/12 07:20:09;;;;;;;13.35;8.00;;;5.50;98.00;;;;;;4998094;28;20057;-78
2022/03/12 07:22:35;;;;;;;24.30;11.77;;;5.60;98.00;;;;;;4998364;28;20125;-77
2022/03/12 07:25:01;;;;;;;16.15;8.90;;;5.60;97.70;;;;;;4998480;28;20129;-77
2022/03/12 07:27:27;;;;;;;19.80;10.30;;;5.50;97.50;;;;;;4994206;28;20428;-77
2022/03/12 07:29:53;;;;;;;24.45;11.25;;;5.60;97.20;;;;;;4987193;28;20552;-79
2022/03/12 07:32:20;;;;;;;25.17;12.02;;;5.60;97.50;;;;;;4978690;28;20145;-77
2022/03/12 07:34:47;;;;;;;18.27;9.68;;;5.60;97.40;;;;;;4978611;28;20058;-77
2022/03/12 07:37:12;;;;;;;16.88;9.98;;;5.60;97.70;;;;;;4978642;28;20054;-76
2022/03/12 07:39:39;;;;;;;19.70;9.65;;;5.70;97.70;;;;;;4978097;28;20401;-77
2022/03/12 07:42:05;;;;;;;16.23;8.75;;;5.70;97.80;;;;;;4978404;28;20383;-78
2022/03/12 07:44:31;;;;;;;13.80;8.65;;;5.80;97.40;;;;;;4978427;28;20053;-77
2022/03/12 07:46:58;;;;;;;14.77;9.07;;;5.90;96.90;;;;;;4978237;28;20082;-77
2022/03/12 07:49:25;;;;;;;19.20;9.23;;;6.10;96.70;;;;;;4995429;28;20502;-77
2022/03/12 07:51:50;;;;;;;17.23;8.65;;;6.20;96.80;;;;;;4978267;28;20379;-78
2022/03/12 07:54:16;;;;;;;14.25;8.15;;;6.40;97.40;;;;;;4978172;28;20569;-77
2022/03/12 07:56:43;;;;;;;15.70;8.55;;;6.50;96.50;;;;;;4978004;28;20069;-77
2022/03/12 07:59:10;;;;;;;14.48;8.13;;;6.70;95.50;;;;;;4977447;28;20057;-77
2022/03/12 08:01:36;;;;;;;15.45;8.65;;;6.80;95.80;;;;;;4995339;28;20157;-77
2022/03/12 08:04:03;;;;;;;22.58;8.85;;;7.00;94.80;;;;;;4977786;28;20104;-77
2022/03/12 08:06:30;;;;;;;15.23;8.55;;;7.10;95.00;;;;;;4977791;28;20085;-77
2022/03/12 08:08:57;;;;;;;14.55;7.82;;;7.20;95.80;;;;;;4977569;28;20046;-77
2022/03/12 08:11:25;;;;;;;13.63;8.00;;;7.30;95.00;;;;;;4977908;28;20398;-77
2022/03/12 08:14:04;;;;;;;17.85;8.73;;;7.40;93.80;;;;;;4977856;28;20050;-77
2022/03/12 08:16:33;;;;;;;14.98;8.48;;;7.50;95.00;;;;;;4977914;28;20494;-78
2022/03/12 08:19:00;;;;;;;13.07;8.13;;;7.60;95.60;;;;;;4977682;28;20061;-78
2022/03/12 08:21:26;;;;;;;14.50;8.40;;;7.70;95.80;;;;;;4977342;28;20042;-79
2022/03/12 08:23:52;;;;;;;16.08;8.73;;;7.90;95.40;;;;;;4977489;28;20053;-78
2022/03/12 08:26:19;;;;;;;16.65;9.23;;;8.00;94.10;;;;;;4977580;28;20557;-78
2022/03/12 08:28:45;;;;;;;14.77;8.77;;;8.10;95.40;;;;;;4977303;28;20062;-79
2022/03/12 08:31:11;;;;;;;15.35;8.80;;;8.10;94.90;;;;;;4977312;28;20046;-78
2022/03/12 08:33:37;;;;;;;18.48;10.02;;;8.20;94.30;;;;;;4977311;28;20061;-79
2022/03/12 08:36:06;;;;;;;16.13;8.50;;;8.30;94.90;;;;;;4977331;28;20050;-79
2022/03/12 08:38:35;;;;;;;12.32;8.18;;;8.40;95.10;;;;;;4977281;28;20073;-78
2022/03/12 08:41:02;;;;;;;15.68;9.02;;;8.60;95.70;;;;;;4977036;28;20058;-78
2022/03/12 08:43:29;;;;;;;16.27;8.70;;;8.70;95.20;;;;;;4977298;28;20510;-77
2022/03/12 08:45:54;;;;;;;17.02;9.98;;;8.90;95.30;;;;;;4976938;28;20047;-78
2022/03/12 08:48:20;;;;;;;16.60;9.18;;;9.10;95.20;;;;;;4976986;28;20088;-78
2022/03/12 08:50:47;;;;;;;17.27;9.23;;;9.10;94.90;;;;;;4983013;28;20050;-77
2022/03/12 08:53:15;;;;;;;18.30;9.73;;;9.20;95.10;;;;;;5013834;28;20444;-77
2022/03/12 08:55:40;;;;;;;15.45;8.70;;;9.20;95.10;;;;;;4994967;28;20057;-78
2022/03/12 08:58:06;;;;;;;14.85;10.18;;;9.20;95.60;;;;;;4993070;28;20052;-79
2022/03/12 09:00:32;;;;;;;15.70;9.00;;;9.30;95.50;;;;;;4991865;28;20408;-80
2022/03/12 09:02:58;;;;;;;19.83;10.00;;;9.30;96.00;;;;;;5001098;28;20123;-78
2022/03/12 09:05:24;;;;;;;16.40;10.45;;;9.40;96.30;;;;;;4996049;28;20049;-79
2022/03/12 09:07:51;;;;;;;18.80;9.30;;;9.50;97.00;;;;;;4995806;28;20034;-79
2022/03/12 09:10:19;;;;;;;17.13;9.57;;;9.60;97.60;;;;;;4992770;28;20042;-79
2022/03/12 09:12:45;;;;;;;15.32;9.85;;;9.80;97.80;;;;;;4996017;28;20456;-79
2022/03/12 09:15:12;;;;;;;15.85;9.45;;;9.90;98.20;;;;;;4996170;28;20046;-79
2022/03/12 09:17:37;;;;;;;16.15;9.85;;;10.10;98.30;;;;;;4995872;28;20108;-79
2022/03/12 09:20:07;;;;;;;17.48;9.50;;;10.20;98.40;;;;;;4995910;28;20042;-79
2022/03/12 09:22:34;;;;;;;18.05;10.90;;;10.30;98.10;;;;;;4995711;28;20057;-79
2022/03/12 09:25:01;;;;;;;15.20;9.98;;;10.30;98.00;;;;;;4996044;28;20042;-79
2022/03/12 09:27:27;;;;;;;16.65;9.88;;;10.40;98.10;;;;;;5014872;28;20400;-78
2022/03/12 09:29:53;;;;;;;17.40;9.52;;;10.60;98.30;;;;;;5015560;28;20133;-79
2022/03/12 09:32:19;;;;;;;16.35;9.48;;;10.60;98.90;;;;;;5015391;28;20038;-78
2022/03/12 09:34:44;;;;;;;15.95;10.00;;;10.60;98.60;;;;;;5015492;28;20048;-79
2022/03/12 09:37:10;;;;;;;16.55;9.73;;;10.60;98.80;;;;;;5015623;28;20053;-79
2022/03/12 09:39:37;;;;;;;15.35;9.65;;;10.70;99.90;;;;;;5033078;28;20049;-79
2022/03/12 09:42:03;;;;;;;16.30;9.70;;;10.60;99.60;;;;;;5007500;28;20049;-79
2022/03/12 09:44:29;;;;;;;19.13;10.90;;;10.70;99.90;;;;;;4995901;28;20490;-79
2022/03/12 09:46:55;;;;;;;16.83;9.95;;;10.70;99.50;;;;;;4995607;28;20042;-79
2022/03/12 09:49:21;;;;;;;18.88;9.98;;;10.70;99.90;;;;;;5013436;28;20045;-79
2022/03/12 09:51:47;;;;;;;16.60;10.23;;;10.80;99.90;;;;;;4995730;28;20052;-79
2022/03/12 09:54:13;;;;;;;20.25;10.98;;;10.80;99.90;;;;;;4995855;28;20058;-79
2022/03/12 09:56:39;;;;;;;17.08;11.73;;;10.80;99.90;;;;;;4996039;28;20058;-79
2022/03/12 09:59:05;;;;;;;15.30;10.57;;;10.90;99.90;;;;;;4995625;28;20068;-78
2022/03/12 10:01:32;;;;;;;18.15;10.27;;;10.90;99.90;;;;;;4995494;28;20497;-79
2022/03/12 10:03:58;;;;;;;17.02;10.82;;;11.00;99.90;;;;;;4995474;28;20053;-79
2022/03/12 10:06:24;;;;;;;17.90;10.48;;;11.00;99.90;;;;;;5000493;28;20038;-78
2022/03/12 10:08:50;;;;;;;16.05;10.40;;;11.20;99.90;;;;;;4969849;28;20099;-78
2022/03/12 10:11:17;;;;;;;17.40;10.85;;;11.20;99.90;;;;;;4986079;28;20402;-79
2022/03/12 10:13:43;;;;;;;16.75;11.05;;;11.40;99.90;;;;;;4992722;28;20074;-79
2022/03/12 10:16:09;;;;;;;15.68;10.55;;;11.50;99.90;;;;;;4976354;28;20117;-79
2022/03/12 10:18:36;;;;;;;15.82;9.88;;;11.60;99.90;;;;;;4975827;28;20105;-79
2022/03/12 10:21:02;;;;;;;17.45;11.02;;;11.60;99.90;;;;;;4993492;28;20081;-78
2022/03/12 10:23:28;;;;;;;16.02;10.38;;;11.70;99.90;;;;;;5016187;28;20045;-79
2022/03/12 10:25:57;;;;;;;15.95;10.38;;;11.80;99.90;;;;;;5017212;28;20050;-96
2022/03/12 10:28:24;;;;;;;15.52;10.68;;;11.90;99.90;;;;;;5018464;28;20072;-82
2022/03/12 10:30:49;;;;;;;17.85;10.75;;;12.00;99.90;;;;;;5018701;28;20045;-78
2022/03/12 10:33:23;;;;;;;16.73;9.93;;;12.10;99.90;;;;;;5018787;28;20116;-78
2022/03/12 10:35:50;;;;;;;16.60;10.38;;;12.30;99.90;;;;;;5018749;28;20046;-78
2022/03/12 10:38:17;;;;;;;18.30;10.73;;;12.40;99.90;;;;;;5018682;28;20104;-79
2022/03/12 10:40:44;;;;;;;14.18;9.35;;;12.50;99.90;;;;;;5007918;28;20053;-78
2022/03/12 10:43:14;;;;;;;14.60;9.27;;;12.60;99.90;;;;;;5018231;28;20052;-78
2022/03/12 10:45:39;;;;;;;14.80;9.02;;;12.60;99.90;;;;;;5017483;28;20053;-78
2022/03/12 10:48:05;;;;;;;15.20;9.45;;;12.60;99.90;;;;;;5018529;28;20048;-78
2022/03/12 10:50:36;;;;;;;13.60;8.82;;;12.80;99.90;;;;;;5018326;28;20091;-78
2022/03/12 10:53:05;;;;;;;14.25;9.57;;;12.80;99.90;;;;;;5018257;28;20160;-78
2022/03/12 10:55:34;;;;;;;14.52;9.05;;;13.00;99.90;;;;;;5018063;28;20041;-79
2022/03/12 10:58:03;;;;;;;16.75;9.32;;;13.20;99.90;;;;;;5035908;28;20095;-78
2022/03/12 11:00:32;;;;;;;13.10;8.10;;;13.30;99.90;;;;;;5018165;28;20056;-79
2022/03/12 11:03:03;;;;;;;12.52;8.10;;;13.50;99.90;;;;;;5018139;28;20046;-79
2022/03/12 11:05:34;;;;;;;13.50;8.13;;;13.50;99.90;;;;;;5018432;28;20550;-79
2022/03/12 11:08:23;;;;;;;11.80;7.55;;;13.60;99.90;;;;;;5018090;28;20049;-81
2022/03/12 11:10:55;;;;;;;11.30;6.93;;;13.80;99.90;;;;;;5018159;28;20061;-82
2022/03/12 11:13:27;;;;;;;11.73;7.88;;;13.70;99.90;;;;;;5016707;28;20056;-79
2022/03/12 11:16:15;;;;;;;13.52;7.55;;;13.70;99.90;;;;;;5015860;28;20401;-79
2022/03/12 11:18:52;;;;;;;14.45;7.25;;;13.70;99.90;;;;;;4998438;28;20046;-79
2022/03/12 11:21:25;;;;;;;12.75;6.80;;;13.70;99.90;;;;;;4998487;28;20058;-78
2022/03/12 11:23:51;;;;;;;12.57;7.20;;;13.80;99.90;;;;;;4998147;28;20050;-78
2022/03/12 11:26:16;;;;;;;13.88;7.80;;;13.90;99.90;;;;;;4998138;28;20042;-79
2022/03/12 11:28:57;;;;;;;11.70;7.57;;;13.90;99.90;;;;;;4998017;28;20046;-78
2022/03/12 11:31:40;;;;;;;16.23;7.47;;;14.00;99.90;;;;;;4998064;28;20107;-79
2022/03/12 11:34:23;;;;;;;10.90;6.68;;;14.00;99.90;;;;;;4978299;28;20050;-79
2022/03/12 11:36:58;;;;;;;15.18;6.78;;;14.00;99.90;;;;;;4978836;28;20116;-79
2022/03/12 11:39:30;;;;;;;11.70;7.22;;;14.10;99.90;;;;;;4978394;28;20085;-79
2022/03/12 11:42:03;;;;;;;12.95;7.18;;;14.10;99.90;;;;;;4978412;28;20047;-79
2022/03/12 11:44:30;;;;;;;12.02;7.28;;;14.20;99.90;;;;;;4978617;28;20054;-79
2022/03/12 11:46:56;;;;;;;11.93;6.25;;;14.30;99.90;;;;;;4978408;28;20078;-79
2022/03/12 11:49:23;;;;;;;13.18;6.88;;;14.30;99.90;;;;;;4978274;28;20050;-79
2022/03/12 11:51:52;;;;;;;10.35;7.10;;;14.30;99.90;;;;;;4994376;28;20050;-79
2022/03/12 11:54:18;;;;;;;13.38;8.05;;;14.30;99.90;;;;;;4978143;28;20050;-79
2022/03/12 11:56:43;;;;;;;12.38;7.93;;;14.30;99.90;;;;;;4978144;28;20050;-79
2022/03/12 11:59:10;;;;;;;11.10;7.07;;;14.30;99.90;;;;;;4978191;28;20085;-79
2022/03/12 12:01:37;;;;;;;12.82;7.30;;;14.40;99.90;;;;;;4978031;28;20089;-80
2022/03/12 12:04:04;;;;;;;11.85;7.32;;;14.40;99.90;;;;;;4977990;28;20416;-79
2022/03/12 12:06:30;;;;;;;10.50;7.32;;;14.30;99.90;;;;;;4977829;28;20125;-79
2022/03/12 12:08:57;;;;;;;12.45;7.05;;;14.40;99.90;;;;;;4995492;28;20125;-79
2022/03/12 12:11:23;;;;;;;12.93;7.90;;;14.40;99.90;;;;;;4977884;28;20054;-79
2022/03/12 12:13:49;;;;;;;13.07;7.53;;;14.50;99.90;;;;;;4978041;28;20093;-79
2022/03/12 12:16:18;;;;;;;14.57;8.27;;;14.50;99.90;;;;;;4994418;28;20042;-79
2022/03/12 12:18:45;;;;;;;14.45;7.53;;;14.50;99.90;;;;;;4977688;28;20043;-79
2022/03/12 12:21:16;;;;;;;14.60;7.80;;;14.50;99.90;;;;;;4977838;28;20076;-79
2022/03/12 12:23:42;;;;;;;11.93;7.65;;;14.50;99.90;;;;;;4977497;28;20046;-79
2022/03/12 12:26:10;;;;;;;12.68;7.85;;;14.50;99.90;;;;;;4978058;28;20050;-79
2022/03/12 12:28:51;;;;;;;14.05;7.95;;;14.40;99.90;;;;;;4977580;28;20058;-79
2022/03/12 12:31:22;;;;;;;13.20;7.40;;;14.40;99.90;;;;;;4994936;28;20133;-79
2022/03/12 12:33:48;;;;;;;13.30;7.22;;;14.40;99.90;;;;;;4977458;28;20072;-79
2022/03/12 12:36:16;;;;;;;11.65;6.78;;;14.30;99.90;;;;;;4977613;28;20053;-79
2022/03/12 12:39:10;;;;;;;11.95;7.70;;;14.40;99.90;;;;;;4994511;28;20489;-79
2022/03/12 12:41:55;;;;;;;12.82;7.35;;;14.40;99.90;;;;;;5006615;28;20060;-79
2022/03/12 12:44:42;;;;;;;11.38;7.60;;;14.30;99.90;;;;;;5033292;28;20037;-79
2022/03/12 12:47:10;;;;;;;10.43;6.63;;;14.30;99.90;;;;;;5016272;28;20128;-79
2022/03/12 12:49:43;;;;;;;12.88;7.35;;;14.30;99.90;;;;;;5016725;28;20061;-79